Time;durP1;ratioP1;P1;durP2;ratioP2;P2;SDS_P1;SDS_P2;PMS_P1;PMS_P2;Temp;Humidity;BMP_temperature;BMP_pressure;BME280_temperature;BME280_humidity;BME280_pressure;Samples;Min_cycle;Max_cycle;Signal;HPM_P1;HPM_P2
2022/06/12 00:00:06;;;;;;;2.85;0.88;;;;;;;14.43;100.00;100351.84;7394658;19;20033;-85
2022/06/12 00:02:32;;;;;;;2.45;0.63;;;;;;;14.43;100.00;100351.84;7396369;19;20006;-85
2022/06/12 00:04:59;;;;;;;3.00;0.47;;;;;;;14.50;100.00;100348.63;7395535;19;20010;-84
2022/06/12 00:07:25;;;;;;;2.60;0.80;;;;;;;14.50;100.00;100357.03;7395278;19;20438;-85
2022/06/12 00:09:51;;;;;;;2.30;0.68;;;;;;;14.44;100.00;100354.16;7395947;19;20464;-85
2022/06/12 00:12:17;;;;;;;3.53;1.00;;;;;;;14.41;100.00;100351.56;7395262;19;20014;-86
2022/06/12 00:14:44;;;;;;;1.95;0.55;;;;;;;14.36;100.00;100353.03;7393888;19;20365;-85
2022/06/12 00:17:10;;;;;;;7.03;1.55;;;;;;;14.33;100.00;100350.44;7387618;19;20057;-84
2022/06/12 00:19:37;;;;;;;4.38;0.40;;;;;;;14.38;100.00;100347.69;7400458;19;20330;-84
2022/06/12 00:22:04;;;;;;;1.58;0.47;;;;;;;14.39;100.00;100342.88;7398487;19;20019;-85
2022/06/12 00:24:30;;;;;;;0.22;0.22;;;;;;;14.43;100.00;100343.44;7396280;19;20013;-85
2022/06/12 00:26:58;;;;;;;0.93;0.65;;;;;;;14.47;100.00;100344.00;7395716;19;20083;-85
2022/06/12 00:29:27;;;;;;;0.20;0.20;;;;;;;14.51;100.00;100344.53;7394330;19;20018;-85
2022/06/12 00:32:01;;;;;;;6.80;1.95;;;;;;;14.55;100.00;100338.75;7399786;19;20046;-85
2022/06/12 00:34:31;;;;;;;2.25;1.08;;;;;;;14.57;100.00;100341.84;7393234;19;20018;-84
2022/06/12 00:36:58;;;;;;;3.35;1.10;;;;;;;14.57;100.00;100348.22;7399657;19;20017;-85
2022/06/12 00:39:26;;;;;;;4.00;0.55;;;;;;;14.52;100.00;100348.13;7395882;19;20073;-85
2022/06/12 00:41:55;;;;;;;1.35;0.40;;;;;;;14.47;100.00;100348.84;7397816;19;20461;-85
2022/06/12 00:44:34;;;;;;;5.38;1.27;;;;;;;14.46;100.00;100347.28;7392680;19;20007;-85
2022/06/12 00:47:04;;;;;;;0.50;0.50;;;;;;;14.47;100.00;100355.19;7394386;19;20694;-85
2022/06/12 00:49:42;;;;;;;5.72;0.88;;;;;;;14.50;100.00;100351.44;7394670;19;20014;-85
2022/06/12 00:52:11;;;;;;;3.88;1.15;;;;;;;14.51;100.00;100352.97;7398174;19;20022;-85
2022/06/12 00:54:41;;;;;;;1.60;0.75;;;;;;;14.50;100.00;100351.44;7393144;19;20357;-85
2022/06/12 00:57:08;;;;;;;11.38;1.65;;;;;;;14.47;100.00;100349.59;7394246;19;20045;-85
2022/06/12 00:59:43;;;;;;;1.75;0.60;;;;;;;14.47;100.00;100344.00;7395552;19;20018;-84
2022/06/12 01:02:15;;;;;;;3.30;0.90;;;;;;;14.42;100.00;100341.91;7397219;19;20445;-84
2022/06/12 01:07:37;;;;;;;0.22;0.13;;;;;;;14.30;100.00;100345.81;7391595;19;20053;-84
2022/06/12 01:10:06;;;;;;;2.13;0.32;;;;;;;14.23;100.00;100337.78;7392545;19;20050;-84
2022/06/12 01:12:58;;;;;;;2.40;1.27;;;;;;;14.16;100.00;100341.75;7392927;19;20544;-84
2022/06/12 01:15:32;;;;;;;2.30;0.77;;;;;;;14.10;100.00;100343.72;7391997;19;20015;-84
2022/06/12 01:17:59;;;;;;;0.77;0.52;;;;;;;14.08;100.00;100340.66;7394455;19;20019;-84
2022/06/12 01:20:31;;;;;;;4.50;1.08;;;;;;;14.00;100.00;100338.75;7393834;19;20022;-84
2022/06/12 01:23:16;;;;;;;5.15;0.70;;;;;;;13.98;100.00;100341.25;7393657;19;20015;-84
2022/06/12 01:26:30;;;;;;;1.92;0.40;;;;;;;13.94;100.00;100349.09;7392916;19;20026;-84
2022/06/12 01:29:33;;;;;;;0.20;0.20;;;;;;;13.94;100.00;100340.69;7392741;19;20011;-84
2022/06/12 01:32:06;;;;;;;4.30;1.27;;;;;;;13.92;100.00;100343.22;7397016;19;20082;-85
2022/06/12 01:34:50;;;;;;;1.48;0.57;;;;;;;13.90;100.00;100342.94;7393207;19;20019;-85
2022/06/12 01:37:32;;;;;;;3.83;1.15;;;;;;;13.88;100.00;100337.78;7394053;19;20019;-85
2022/06/12 01:40:01;;;;;;;1.45;1.00;;;;;;;13.89;100.00;100338.56;7393871;19;20474;-84
2022/06/12 01:42:40;;;;;;;1.33;0.93;;;;;;;13.90;100.00;100342.94;7394831;19;20011;-85
2022/06/12 01:45:06;;;;;;;6.95;1.25;;;;;;;13.91;100.00;100352.84;7389962;19;20042;-85
2022/06/12 01:47:47;;;;;;;1.98;0.68;;;;;;;13.94;100.00;100343.50;7393867;19;20445;-84
2022/06/12 01:50:20;;;;;;;0.82;0.75;;;;;;;13.96;100.00;100349.38;7391727;19;20010;-83
2022/06/12 01:53:15;;;;;;;1.10;0.38;;;;;;;13.99;100.00;100345.63;7391701;19;20037;-85
2022/06/12 01:56:03;;;;;;;0.95;0.77;;;;;;;14.01;100.00;100345.91;7392963;19;20022;-84
2022/06/12 01:58:45;;;;;;;1.15;0.98;;;;;;;13.96;100.00;100354.97;7393535;19;20345;-84
2022/06/12 02:01:17;;;;;;;3.88;0.82;;;;;;;14.01;100.00;100357.84;7392324;19;20015;-85
2022/06/12 02:04:12;;;;;;;4.78;0.73;;;;;;;13.99;100.00;100354.00;7390903;19;20011;-84
2022/06/12 02:07:17;;;;;;;2.17;0.43;;;;;;;13.90;100.00;100351.31;7390788;19;20015;-84
2022/06/12 02:09:59;;;;;;;11.90;1.08;;;;;;;13.77;100.00;100359.28;7392678;19;20026;-84
2022/06/12 02:15:32;;;;;;;3.42;0.77;;;;;;;13.54;100.00;100350.50;7389873;19;19918;-84
2022/06/12 02:18:19;;;;;;;1.63;0.65;;;;;;;13.48;100.00;100355.25;7392558;19;20007;-84
2022/06/12 02:20:57;;;;;;;2.78;0.85;;;;;;;13.47;100.00;100348.09;7399368;19;20337;-85
2022/06/12 02:23:29;;;;;;;0.60;0.50;;;;;;;13.50;100.00;100349.16;7400071;19;20026;-84
2022/06/12 02:25:56;;;;;;;1.30;0.68;;;;;;;13.54;100.00;100358.91;7397702;19;20018;-84
2022/06/12 02:28:31;;;;;;;4.00;0.65;;;;;;;13.51;100.00;100348.66;7398614;19;20018;-84
2022/06/12 02:31:19;;;;;;;15.60;1.25;;;;;;;13.56;100.00;100350.78;7400422;19;20010;-85
2022/06/12 02:33:51;;;;;;;7.05;0.60;;;;;;;13.65;100.00;100359.09;7397011;19;20032;-85
2022/06/12 02:36:25;;;;;;;0.98;0.90;;;;;;;13.69;100.00;100351.25;7399863;19;20026;-85
2022/06/12 02:39:07;;;;;;;0.40;0.40;;;;;;;13.75;100.00;100353.38;7398368;19;20010;-84
2022/06/12 02:41:37;;;;;;;3.10;0.70;;;;;;;13.57;100.00;100346.75;7399674;19;20338;-84
2022/06/12 02:44:12;;;;;;;2.50;1.13;;;;;;;13.56;100.00;100348.00;7397729;19;20014;-85
2022/06/12 02:46:45;;;;;;;2.10;0.55;;;;;;;13.58;100.00;100353.88;7399220;19;20014;-84
2022/06/12 02:49:13;;;;;;;1.90;0.52;;;;;;;13.55;100.00;100352.06;7399146;19;20014;-85
2022/06/12 02:51:56;;;;;;;2.78;0.43;;;;;;;13.52;100.00;100358.63;7400836;19;20011;-84
2022/06/12 02:54:34;;;;;;;0.85;0.30;;;;;;;13.53;100.00;100365.00;7396211;19;20028;-84
2022/06/12 02:57:15;;;;;;;3.05;0.75;;;;;;;13.50;100.00;100351.97;7396152;19;20019;-84
2022/06/12 03:00:03;;;;;;;0.90;0.40;;;;;;;13.50;100.00;100351.97;7396894;19;20015;-85
2022/06/12 03:02:36;;;;;;;2.38;0.65;;;;;;;13.50;100.00;100352.72;7396808;19;20014;-84
2022/06/12 03:05:18;;;;;;;2.65;1.10;;;;;;;13.47;100.00;100352.94;7397405;19;20038;-84
2022/06/12 03:07:44;;;;;;;1.60;0.60;;;;;;;13.63;100.00;100350.41;7397678;19;20052;-84
2022/06/12 03:10:16;;;;;;;0.45;0.45;;;;;;;13.31;100.00;100337.41;7400021;19;20469;-84
2022/06/12 03:12:44;;;;;;;0.65;0.60;;;;;;;14.98;100.00;100343.31;7393053;19;20134;-85
2022/06/12 03:15:34;;;;;;;1.42;0.70;;;;;;;15.44;100.00;100349.66;7392873;19;20022;-85
2022/06/12 03:18:02;;;;;;;1.90;0.63;;;;;;;13.53;100.00;100351.00;7398202;19;20022;-84
2022/06/12 03:20:38;;;;;;;0.45;0.45;;;;;;;13.22;100.00;100343.09;7401264;19;20007;-84
2022/06/12 03:23:18;;;;;;;9.25;1.17;;;;;;;13.00;100.00;100337.06;7399831;19;20010;-85
2022/06/12 03:25:53;;;;;;;14.43;1.05;;;;;;;12.96;100.00;100342.06;7396991;19;20022;-85
2022/06/12 03:28:45;;;;;;;5.53;1.23;;;;;;;12.89;100.00;100342.44;7396266;19;20021;-85
2022/06/12 03:31:19;;;;;;;0.30;0.30;;;;;;;12.81;100.00;100338.47;7397609;19;20042;-84
2022/06/12 03:33:55;;;;;;;9.15;1.40;;;;;;;12.77;100.00;100341.47;7397484;19;20419;-84
2022/06/12 03:36:24;;;;;;;0.82;0.82;;;;;;;12.74;100.00;100341.66;7399831;19;20014;-84
2022/06/12 03:38:52;;;;;;;0.70;0.40;;;;;;;12.63;100.00;100344.22;7395523;19;20444;-84
2022/06/12 03:41:31;;;;;;;0.52;0.40;;;;;;;12.59;100.00;100346.41;7398597;19;20010;-84
2022/06/12 03:44:22;;;;;;;1.33;1.10;;;;;;;12.57;100.00;100343.34;7394167;19;20050;-84
2022/06/12 03:47:13;;;;;;;1.98;0.77;;;;;;;12.58;100.00;100342.09;7398258;19;20022;-84
2022/06/12 03:50:11;;;;;;;1.17;0.60;;;;;;;12.59;100.00;100346.41;7396663;19;20021;-84
2022/06/12 03:52:52;;;;;;;3.03;0.80;;;;;;;12.57;100.00;100349.69;7395554;19;20362;-84
2022/06/12 03:58:59;;;;;;;8.88;0.88;;;;;;;12.48;100.00;100341.38;7395175;19;20017;-85
2022/06/12 04:01:26;;;;;;;4.03;0.82;;;;;;;12.47;100.00;100344.66;7396418;19;20006;-84
2022/06/12 04:03:54;;;;;;;1.10;0.80;;;;;;;12.46;100.00;100343.09;7392998;19;20049;-84
2022/06/12 04:06:25;;;;;;;3.15;1.10;;;;;;;12.46;100.00;100348.69;7395229;19;20281;-85
2022/06/12 04:08:56;;;;;;;0.88;0.75;;;;;;;12.49;100.00;100350.53;7393904;19;20025;-84
2022/06/12 04:11:26;;;;;;;4.95;0.73;;;;;;;12.50;100.00;100350.06;7397382;19;20010;-84
2022/06/12 04:13:53;;;;;;;3.78;0.98;;;;;;;12.58;100.00;100356.06;7394304;19;20031;-84
2022/06/12 04:16:29;;;;;;;5.78;1.05;;;;;;;12.68;100.00;100349.16;7396442;19;20014;-85
2022/06/12 04:18:56;;;;;;;7.22;0.65;;;;;;;12.56;100.00;100353.72;7396136;19;20023;-84
2022/06/12 04:21:25;;;;;;;0.43;0.43;;;;;;;12.78;100.00;100347.81;7395794;19;20010;-85
2022/06/12 04:24:09;;;;;;;1.65;0.65;;;;;;;12.86;100.00;100360.94;7396215;19;20054;-84
2022/06/12 04:26:38;;;;;;;1.88;0.55;;;;;;;13.03;100.00;100358.47;7394974;19;20046;-84
2022/06/12 04:29:30;;;;;;;0.30;0.30;;;;;;;13.10;100.00;100358.13;7393952;19;20038;-85
2022/06/12 04:32:00;;;;;;;1.13;1.05;;;;;;;13.22;100.00;100364.69;7398656;19;20015;-85
2022/06/12 04:34:34;;;;;;;1.35;0.80;;;;;;;13.34;100.00;100358.81;7394887;19;20015;-84
2022/06/12 04:37:10;;;;;;;0.93;0.32;;;;;;;13.39;100.00;100372.13;7395235;19;20033;-85
2022/06/12 04:39:36;;;;;;;3.97;1.25;;;;;;;13.50;100.00;100365.94;7393658;19;20421;-84
2022/06/12 04:42:04;;;;;;;5.28;1.15;;;;;;;13.64;100.00;100363.13;7394727;19;20015;-84
2022/06/12 04:44:30;;;;;;;1.33;0.70;;;;;;;13.85;100.00;100366.78;7391591;19;20096;-84
2022/06/12 04:46:58;;;;;;;1.85;1.50;;;;;;;13.88;100.00;100365.78;7393931;19;20094;-85
2022/06/12 04:49:28;;;;;;;1.17;0.95;;;;;;;14.01;100.00;100373.91;7393830;19;20014;-85
2022/06/12 04:51:57;;;;;;;0.83;0.60;;;;;;;14.13;100.00;100370.00;7398820;19;20022;-85
2022/06/12 04:54:24;;;;;;;0.93;0.40;;;;;;;14.25;100.00;100377.31;7394154;19;20278;-84
2022/06/12 04:56:50;;;;;;;1.67;0.70;;;;;;;14.27;100.00;100380.41;7393280;19;20021;-85
2022/06/12 04:59:18;;;;;;;16.23;1.52;;;;;;;14.34;100.00;100382.78;7394853;19;20013;-84
2022/06/12 05:01:47;;;;;;;3.00;1.33;;;;;;;14.39;100.00;100387.72;7396478;19;20384;-85
2022/06/12 05:04:15;;;;;;;12.15;2.70;;;;;;;14.42;100.00;100392.34;7392326;19;20031;-85
2022/06/12 05:06:42;;;;;;;2.58;1.90;;;;;;;14.53;100.00;100389.66;7394995;19;20042;-85
2022/06/12 05:09:10;;;;;;;5.07;1.05;;;;;;;14.59;100.00;100384.94;7392351;19;20018;-84
2022/06/12 05:11:37;;;;;;;0.82;0.50;;;;;;;14.64;100.00;100398.22;7396170;19;20014;-84
2022/06/12 05:14:03;;;;;;;1.48;0.60;;;;;;;14.71;100.00;100397.81;7392996;19;20495;-85
2022/06/12 05:16:44;;;;;;;1.92;0.73;;;;;;;14.81;100.00;100402.00;7394640;19;20022;-86
2022/06/12 05:19:14;;;;;;;2.92;1.13;;;;;;;14.87;100.00;100400.06;7394020;19;20090;-85
2022/06/12 05:21:41;;;;;;;0.73;0.57;;;;;;;14.98;100.00;100405.81;7395183;19;20018;-86
2022/06/12 05:24:09;;;;;;;1.55;0.40;;;;;;;15.02;100.00;100400.75;7393130;19;20018;-86
2022/06/12 05:26:38;;;;;;;4.65;0.60;;;;;;;15.09;100.00;100400.28;7392460;19;20022;-85
2022/06/12 05:29:07;;;;;;;5.25;1.15;;;;;;;15.11;100.00;100397.03;7393706;19;20472;-85
2022/06/12 05:31:33;;;;;;;4.20;1.35;;;;;;;15.21;100.00;100404.00;7395175;19;20018;-85
2022/06/12 05:34:00;;;;;;;1.63;0.30;;;;;;;15.23;100.00;100403.50;7392578;19;20011;-85
2022/06/12 05:36:26;;;;;;;2.28;0.90;;;;;;;15.26;100.00;100413.75;7393438;19;20130;-85
2022/06/12 05:38:52;;;;;;;9.15;1.67;;;;;;;15.31;100.00;100410.25;7393467;19;20077;-86
2022/06/12 05:41:19;;;;;;;1.25;0.52;;;;;;;15.35;100.00;100410.78;7395545;19;20036;-85
2022/06/12 05:43:45;;;;;;;6.22;0.90;;;;;;;15.39;100.00;100406.50;7393271;19;20025;-85
2022/06/12 05:46:14;;;;;;;0.88;0.60;;;;;;;15.45;100.00;100398.16;7393075;19;20018;-85
2022/06/12 05:48:41;;;;;;;0.90;0.68;;;;;;;15.51;100.00;100410.19;7392115;19;20074;-84
2022/06/12 05:51:12;;;;;;;2.28;0.68;;;;;;;15.53;100.00;100402.81;7394574;19;20414;-84
2022/06/12 05:53:38;;;;;;;12.73;2.17;;;;;;;15.54;100.00;100412.03;7395482;19;20025;-85
2022/06/12 05:56:07;;;;;;;0.77;0.40;;;;;;;15.58;100.00;100418.97;7398931;19;20046;-85
2022/06/12 05:58:36;;;;;;;0.55;0.40;;;;;;;15.59;100.00;100419.72;7399922;19;20010;-84
2022/06/12 06:01:05;;;;;;;2.17;0.82;;;;;;;15.65;100.00;100418.53;7401484;19;20026;-85
2022/06/12 06:03:31;;;;;;;2.03;0.50;;;;;;;15.70;100.00;100419.84;7400531;19;20019;-85
2022/06/12 06:05:57;;;;;;;19.35;1.02;;;;;;;15.78;100.00;100415.31;7402273;19;20010;-85
2022/06/12 06:08:23;;;;;;;10.98;0.68;;;;;;;15.89;100.00;100415.41;7400427;19;21142;-85
2022/06/12 06:10:49;;;;;;;3.45;1.00;;;;;;;16.00;100.00;100409.88;7402238;19;20010;-84
2022/06/12 06:13:16;;;;;;;3.70;1.65;;;;;;;16.11;100.00;100407.16;7404287;19;20362;-85
2022/06/12 06:15:43;;;;;;;1.65;0.20;;;;;;;16.18;100.00;100415.09;7397663;19;20070;-85
2022/06/12 06:18:10;;;;;;;2.17;0.70;;;;;;;16.19;100.00;100413.84;7397225;19;20457;-85
2022/06/12 06:20:38;;;;;;;0.90;0.82;;;;;;;16.16;100.00;100423.25;7400825;19;20085;-85
2022/06/12 06:23:08;;;;;;;1.00;0.20;;;;;;;16.24;100.00;100421.50;7399494;19;20007;-85
2022/06/12 06:25:35;;;;;;;0.30;0.30;;;;;;;16.27;100.00;100420.53;7399856;19;20018;-85
2022/06/12 06:28:02;;;;;;;0.95;0.40;;;;;;;16.27;100.00;100414.91;7400432;19;20026;-85
2022/06/12 06:30:29;;;;;;;5.95;0.40;;;;;;;16.27;100.00;100417.72;7399632;19;20362;-85
2022/06/12 06:32:55;;;;;;;10.25;1.20;;;;;;;16.35;100.00;100413.16;7398451;19;20021;-84
2022/06/12 06:35:22;;;;;;;0.20;0.20;;;;;;;16.41;100.00;100410.41;7401855;19;20007;-85
2022/06/12 06:37:50;;;;;;;1.75;0.77;;;;;;;16.37;100.00;100409.88;7408683;19;20039;-85
2022/06/12 06:40:18;;;;;;;11.07;0.82;;;;;;;16.19;100.00;100404.63;7403128;19;20014;-84
2022/06/12 06:42:44;;;;;;;7.05;0.75;;;;;;;15.99;100.00;100413.16;7400599;19;20022;-84
2022/06/12 06:47:58;;;;;;;4.20;0.70;;;;;;;15.61;100.00;100423.59;7402747;19;20018;-85
2022/06/12 06:50:25;;;;;;;1.80;0.73;;;;;;;15.57;100.00;100433.50;7398857;19;20050;-83
2022/06/12 06:52:51;;;;;;;5.97;0.68;;;;;;;15.55;100.00;100444.47;7398051;19;20010;-84
2022/06/12 06:55:18;;;;;;;8.25;1.00;;;;;;;15.60;100.00;100446.53;7395040;19;20011;-85
2022/06/12 06:57:46;;;;;;;0.80;0.52;;;;;;;15.68;100.00;100444.84;7399853;19;20035;-85
2022/06/12 07:00:21;;;;;;;1.33;0.28;;;;;;;15.77;100.00;100451.03;7398953;19;20026;-84
2022/06/12 07:02:47;;;;;;;0.75;0.45;;;;;;;15.92;100.00;100453.72;7396046;19;20371;-85
2022/06/12 07:05:14;;;;;;;4.32;0.40;;;;;;;16.13;100.00;100452.38;7393367;19;20331;-84
2022/06/12 07:07:41;;;;;;;12.27;0.85;;;;;;;16.39;100.00;100455.09;7396016;19;20037;-85
2022/06/12 07:10:11;;;;;;;4.07;0.45;;;;;;;16.59;100.00;100450.13;7397574;19;20634;-85
2022/06/12 07:12:37;;;;;;;5.60;1.23;;;;;;;16.65;100.00;100453.75;7398922;19;20014;-84
2022/06/12 07:15:04;;;;;;;3.58;1.60;;;;;;;16.70;100.00;100443.06;7395253;19;20021;-85
2022/06/12 07:17:30;;;;;;;3.28;0.75;;;;;;;16.64;100.00;100455.03;7398119;19;20018;-85
2022/06/12 07:19:56;;;;;;;3.40;0.30;;;;;;;16.65;100.00;100456.56;7395182;19;20379;-84
2022/06/12 07:22:23;;;;;;;0.70;0.52;;;;;;;16.74;100.00;100466.09;7394287;19;20018;-86
2022/06/12 07:24:50;;;;;;;1.45;0.85;;;;;;;16.82;100.00;100458.69;7396971;19;20424;-84
2022/06/12 07:27:16;;;;;;;1.95;0.73;;;;;;;16.81;100.00;100471.22;7395654;19;20014;-85
2022/06/12 07:29:43;;;;;;;1.30;0.65;;;;;;;16.86;100.00;100459.22;7398464;19;20029;-85
2022/06/12 07:32:10;;;;;;;2.28;0.93;;;;;;;16.81;100.00;100454.34;7401461;19;20019;-85
2022/06/12 07:34:36;;;;;;;1.80;1.05;;;;;;;16.71;100.00;100470.66;7396542;19;20495;-85
2022/06/12 07:37:05;;;;;;;7.32;1.00;;;;;;;16.66;100.00;100475.00;7397844;19;20035;-85
2022/06/12 07:39:33;;;;;;;9.63;1.42;;;;;;;16.57;100.00;100475.19;7397346;19;20018;-85
2022/06/12 07:42:00;;;;;;;10.25;1.38;;;;;;;16.51;100.00;100471.56;7399594;19;20471;-86
2022/06/12 07:44:32;;;;;;;6.05;1.25;;;;;;;16.56;100.00;100468.03;7394919;19;20035;-86
2022/06/12 07:47:00;;;;;;;1.58;0.45;;;;;;;16.64;100.00;100474.72;7397134;19;20107;-85
2022/06/12 07:49:28;;;;;;;0.63;0.10;;;;;;;16.68;100.00;100472.44;7396600;19;20018;-85
2022/06/12 07:51:56;;;;;;;3.83;0.88;;;;;;;16.79;100.00;100479.41;7400887;19;20015;-86
2022/06/12 07:54:23;;;;;;;1.05;0.52;;;;;;;17.09;100.00;100474.94;7396512;19;20451;-85
2022/06/12 07:56:50;;;;;;;2.90;0.95;;;;;;;17.30;100.00;100479.13;7396244;19;20018;-85
2022/06/12 07:59:17;;;;;;;3.00;0.80;;;;;;;17.57;100.00;100475.63;7396846;19;20360;-84
2022/06/12 08:01:44;;;;;;;2.72;0.47;;;;;;;17.75;100.00;100480.03;7396505;19;20594;-86
2022/06/12 08:04:11;;;;;;;4.68;0.30;;;;;;;17.80;100.00;100477.19;7396446;19;20014;-84
2022/06/12 08:06:38;;;;;;;1.52;0.68;;;;;;;17.91;100.00;100482.84;7395574;19;20027;-86
2022/06/12 08:09:07;;;;;;;3.80;0.80;;;;;;;17.97;100.00;100485.69;7397659;19;20025;-86
2022/06/12 08:11:34;;;;;;;0.10;0.10;;;;;;;18.00;100.00;100491.06;7400475;19;20007;-85
2022/06/12 08:14:01;;;;;;;0.85;0.55;;;;;;;18.06;100.00;100499.53;7399947;19;20114;-85
2022/06/12 08:16:28;;;;;;;0.65;0.20;;;;;;;18.10;100.00;100492.34;7399420;19;20018;-85
2022/06/12 08:18:54;;;;;;;0.20;0.20;;;;;;;18.02;100.00;100511.06;7406778;19;20494;-84
2022/06/12 08:21:21;;;;;;;6.68;0.43;;;;;;;17.81;100.00;100500.53;7395595;19;20359;-85
2022/06/12 08:23:51;;;;;;;0.88;0.40;;;;;;;17.76;100.00;100507.69;7395618;19;20025;-85
2022/06/12 08:26:26;;;;;;;0.45;0.25;;;;;;;17.80;100.00;100499.75;7394149;19;20040;-84
2022/06/12 08:28:56;;;;;;;10.00;0.57;;;;;;;17.82;100.00;100502.81;7396141;19;20022;-86
2022/06/12 08:31:31;;;;;;;2.17;0.57;;;;;;;17.87;100.00;100498.47;7398763;19;20488;-85
2022/06/12 08:34:02;;;;;;;5.15;0.88;;;;;;;17.98;100.00;100499.25;7395194;19;20432;-86
2022/06/12 08:36:30;;;;;;;0.82;0.25;;;;;;;18.10;100.00;100503.63;7395369;19;20018;-85
2022/06/12 08:38:56;;;;;;;5.68;0.70;;;;;;;17.99;100.00;100506.44;7394871;19;20042;-85
2022/06/12 08:41:31;;;;;;;3.17;0.73;;;;;;;17.84;100.00;100503.09;7395678;19;20026;-84
2022/06/12 08:44:19;;;;;;;0.68;0.40;;;;;;;17.79;100.00;100509.50;7394087;19;20019;-85
2022/06/12 08:46:50;;;;;;;4.78;0.52;;;;;;;17.79;100.00;100509.50;7395106;19;20469;-84
2022/06/12 08:49:28;;;;;;;2.20;0.60;;;;;;;17.97;100.00;100503.38;7394802;19;20014;-85
2022/06/12 08:51:57;;;;;;;8.43;0.80;;;;;;;18.15;100.00;100508.50;7400237;19;20002;-84
2022/06/12 08:54:30;;;;;;;4.90;0.45;;;;;;;18.21;100.00;100504.91;7394570;19;20014;-85
2022/06/12 08:57:16;;;;;;;2.30;0.32;;;;;;;18.27;100.00;100511.31;7393978;19;20010;-85
2022/06/12 08:59:48;;;;;;;3.42;0.47;;;;;;;18.25;100.00;100505.44;7394320;19;20021;-84
2022/06/12 09:02:26;;;;;;;3.22;0.98;;;;;;;18.23;100.00;100502.34;7391414;19;20022;-85
2022/06/12 09:05:01;;;;;;;0.63;0.40;;;;;;;18.14;100.00;100500.56;7391820;19;20074;-85
2022/06/12 09:07:40;;;;;;;0.98;0.25;;;;;;;18.11;100.00;100510.81;7394379;19;20337;-85
2022/06/12 09:10:21;;;;;;;0.45;0.25;;;;;;;18.13;100.00;100516.69;7395784;19;20031;-84
2022/06/12 09:12:55;;;;;;;6.60;0.90;;;;;;;18.19;100.00;100514.66;7393232;19;20019;-85
2022/06/12 09:15:36;;;;;;;2.58;1.20;;;;;;;18.35;100.00;100510.28;7392258;19;20022;-84
2022/06/12 09:18:20;;;;;;;1.88;0.68;;;;;;;18.44;100.00;100512.09;7390976;19;20019;-84
2022/06/12 09:20:57;;;;;;;2.88;0.22;;;;;;;18.41;100.00;100513.13;7391616;19;20011;-84
2022/06/12 09:23:57;;;;;;;2.38;0.52;;;;;;;18.44;100.00;100514.91;7391629;19;20074;-84
2022/06/12 09:26:39;;;;;;;7.07;0.68;;;;;;;18.44;100.00;100506.44;7394456;19;20011;-85
2022/06/12 09:29:40;;;;;;;5.82;0.20;;;;;;;18.44;100.00;100504.44;7389837;19;20007;-86
2022/06/12 09:32:12;;;;;;;;;;;;;;;18.13;100.00;100508.25;7397558;19;20022;-84
2022/06/12 09:34:54;;;;;;;0.98;0.32;;;;;;;17.87;100.00;100504.88;7391616;19;19919;-84
2022/06/12 09:40:39;;;;;;;1.20;0.30;;;;;;;17.75;100.00;100503.34;7393822;19;20052;-84
2022/06/12 09:43:35;;;;;;;0.50;0.30;;;;;;;17.80;100.00;100501.81;7393210;19;20023;-84
2022/06/12 09:46:18;;;;;;;3.28;0.47;;;;;;;17.98;100.00;100499.25;7392999;19;20018;-84
2022/06/12 09:49:12;;;;;;;10.40;0.93;;;;;;;18.42;100.00;100504.13;7391610;19;20017;-84
2022/06/12 09:52:06;;;;;;;0.65;0.20;;;;;;;19.16;100.00;100498.59;7395631;19;20007;-84
2022/06/12 09:54:45;;;;;;;2.50;0.50;;;;;;;19.13;100.00;100502.47;7390915;19;20018;-85
2022/06/12 09:57:32;;;;;;;6.78;0.50;;;;;;;18.97;100.00;100502.53;7392120;19;20022;-84
2022/06/12 10:00:23;;;;;;;3.03;0.63;;;;;;;18.65;100.00;100516.19;7391573;19;20041;-84
2022/06/12 10:03:11;;;;;;;7.47;0.47;;;;;;;18.41;100.00;100513.13;7392229;19;20018;-84
2022/06/12 10:05:43;;;;;;;1.48;0.30;;;;;;;18.43;100.00;100524.66;7391788;19;20007;-84
2022/06/12 10:08:19;;;;;;;6.47;0.65;;;;;;;19.26;100.00;100513.97;7391185;19;20022;-85
2022/06/12 10:10:52;;;;;;;7.43;0.52;;;;;;;19.81;100.00;100512.94;7392581;19;20015;-84
2022/06/12 10:13:24;;;;;;;10.23;0.50;;;;;;;19.84;100.00;100511.13;7391917;19;20031;-84
2022/06/12 10:15:57;;;;;;;2.38;0.17;;;;;;;19.66;100.00;100504.78;7390870;19;20069;-84
2022/06/12 10:18:36;;;;;;;2.30;0.17;;;;;;;19.29;100.00;100507.28;7392136;19;20516;-84
2022/06/12 10:21:08;;;;;;;2.42;0.55;;;;;;;19.46;100.00;100498.75;7392941;19;20022;-84
2022/06/12 10:23:35;;;;;;;1.23;0.60;;;;;;;19.45;100.00;100500.81;7392224;19;20031;-84
2022/06/12 10:26:07;;;;;;;0.35;0.13;;;;;;;19.49;100.00;100498.47;7391519;19;20037;-84
2022/06/12 10:28:36;;;;;;;6.28;0.40;;;;;;;19.32;100.00;100500.56;7390630;19;20030;-84
2022/06/12 10:31:21;;;;;;;0.70;0.10;;;;;;;19.15;100.00;100508.34;7392359;19;20022;-84
2022/06/12 10:34:03;;;;;;;1.65;0.30;;;;;;;19.03;100.00;100501.22;7389352;19;20014;-84
2022/06/12 10:36:32;;;;;;;0.63;0.17;;;;;;;19.19;100.00;100505.28;7390820;19;20011;-84
2022/06/12 10:39:17;;;;;;;9.65;0.30;;;;;;;19.80;100.00;100497.25;7391631;19;20014;-84
2022/06/12 10:41:55;;;;;;;5.45;0.35;;;;;;;20.01;100.00;100492.00;7400026;19;20018;-84
2022/06/12 10:44:44;;;;;;;0.40;0.20;;;;;;;19.74;100.00;100490.88;7395598;19;20362;-85
2022/06/12 10:47:17;;;;;;;7.00;0.50;;;;;;;19.71;100.00;100497.56;7399338;19;20475;-84
2022/06/12 10:49:44;;;;;;;1.42;0.30;;;;;;;19.45;100.00;100492.31;7398045;19;20059;-85
2022/06/12 10:52:20;;;;;;;1.33;0.40;;;;;;;19.15;100.00;100485.75;7400782;19;20018;-84
2022/06/12 10:54:50;;;;;;;0.20;0.10;;;;;;;18.87;100.00;100494.34;7394768;19;20022;-84
2022/06/12 10:57:29;;;;;;;2.23;0.67;;;;;;;18.96;100.00;100495.34;7396392;19;20042;-83
2022/06/12 11:00:02;;;;;;;0.57;0.40;;;;;;;19.73;100.00;100482.94;7395781;19;20050;-84
2022/06/12 11:03:05;;;;;;;4.07;0.30;;;;;;;20.32;100.00;100477.34;7393239;19;20014;-84
2022/06/12 11:05:46;;;;;;;1.00;0.20;;;;;;;20.44;97.23;100478.78;7396367;19;20026;-84
2022/06/12 11:08:18;;;;;;;3.15;0.32;;;;;;;20.53;100.00;100478.41;7397441;19;20034;-87
2022/06/12 11:10:50;;;;;;;4.20;0.20;;;;;;;21.12;96.21;100478.31;7397556;19;20014;-84
2022/06/12 11:13:27;;;;;;;0.60;0.20;;;;;;;21.11;94.45;100479.59;7397192;19;20098;-84
2022/06/12 11:16:15;;;;;;;2.33;0.20;;;;;;;20.87;94.42;100482.44;7396317;19;20026;-84
2022/06/12 11:18:59;;;;;;;0.57;0.30;;;;;;;20.70;99.23;100490.38;7395843;19;20019;-84
2022/06/12 11:21:56;;;;;;;4.53;0.30;;;;;;;20.63;100.00;100471.13;7396650;19;20018;-84
2022/06/12 11:24:26;;;;;;;4.03;0.70;;;;;;;20.58;97.69;100477.59;7395536;19;20549;-84
2022/06/12 11:27:20;;;;;;;4.13;0.53;;;;;;;20.45;100.00;100473.88;7397015;19;20022;-84
2022/06/12 11:30:10;;;;;;;2.47;0.22;;;;;;;20.25;98.10;100478.69;7396467;19;20011;-83
2022/06/12 11:32:43;;;;;;;2.80;0.30;;;;;;;20.26;100.00;100477.41;7394986;19;20021;-84
2022/06/12 11:35:24;;;;;;;0.95;0.30;;;;;;;20.17;98.46;100471.28;7394738;19;20022;-84
2022/06/12 11:38:20;;;;;;;0.25;0.10;;;;;;;20.30;97.51;100471.44;7395054;19;20018;-85
2022/06/12 11:41:02;;;;;;;2.20;0.65;;;;;;;21.04;100.00;100468.88;7395459;19;20018;-84
2022/06/12 11:43:40;;;;;;;1.10;0.25;;;;;;;21.42;93.95;100474.59;7394468;19;20382;-84
2022/06/12 11:46:22;;;;;;;1.23;0.38;;;;;;;21.42;92.15;100464.00;7394484;19;20022;-83
2022/06/12 11:49:09;;;;;;;1.25;0.30;;;;;;;21.46;87.87;100466.56;7396574;19;20035;-84
2022/06/12 11:51:35;;;;;;;2.55;0.25;;;;;;;21.80;87.08;100461.91;7396879;19;20011;-83
2022/06/12 11:54:27;;;;;;;0.30;0.25;;;;;;;21.94;86.70;100457.84;7394748;19;20022;-83
2022/06/12 11:57:05;;;;;;;2.38;0.30;;;;;;;22.02;84.01;100450.25;7394211;19;20047;-85
2022/06/12 11:59:38;;;;;;;2.15;0.10;;;;;;;22.27;83.06;100457.28;7394531;19;20014;-84
2022/06/12 12:02:21;;;;;;;0.47;0.35;;;;;;;22.33;77.38;100457.97;7398474;19;20014;-84